sensor_id;sensor_type;location;lat;lon;timestamp;pressure;altitude;pressure_sealevel;temperature;humidity
10366;BME280;5229;41.820;23.490;2023-02-15T00:00:20;90782.78;;;1.11;56.71
10366;BME280;5229;41.820;23.490;2023-02-15T00:02:46;90784.34;;;1.12;56.75
10366;BME280;5229;41.820;23.490;2023-02-15T00:05:13;90777.44;;;1.12;56.80
10366;BME280;5229;41.820;23.490;2023-02-15T00:07:40;90778.00;;;1.14;56.73
10366;BME280;5229;41.820;23.490;2023-02-15T00:10:07;90775.75;;;1.18;57.23
10366;BME280;5229;41.820;23.490;2023-02-15T00:12:34;90775.06;;;1.22;56.69
10366;BME280;5229;41.820;23.490;2023-02-15T00:15:01;90769.50;;;1.25;56.60
10366;BME280;5229;41.820;23.490;2023-02-15T00:17:29;90771.59;;;1.28;56.63
10366;BME280;5229;41.820;23.490;2023-02-15T00:19:56;90769.59;;;1.30;57.02
10366;BME280;5229;41.820;23.490;2023-02-15T00:22:23;90754.59;;;1.34;56.98
10366;BME280;5229;41.820;23.490;2023-02-15T00:24:49;90762.31;;;1.39;56.27
10366;BME280;5229;41.820;23.490;2023-02-15T00:27:16;90753.69;;;1.40;56.80
10366;BME280;5229;41.820;23.490;2023-02-15T00:29:43;90751.13;;;1.40;56.85
10366;BME280;5229;41.820;23.490;2023-02-15T00:32:10;90763.41;;;1.43;56.85
10366;BME280;5229;41.820;23.490;2023-02-15T00:34:38;90768.00;;;1.41;56.27
10366;BME280;5229;41.820;23.490;2023-02-15T00:37:04;90768.91;;;1.35;56.55
10366;BME280;5229;41.820;23.490;2023-02-15T00:39:31;90777.88;;;1.37;57.02
10366;BME280;5229;41.820;23.490;2023-02-15T00:41:58;90779.91;;;1.35;56.65
10366;BME280;5229;41.820;23.490;2023-02-15T00:44:25;90769.47;;;1.37;56.70
10366;BME280;5229;41.820;23.490;2023-02-15T00:46:52;90784.22;;;1.35;57.02
10366;BME280;5229;41.820;23.490;2023-02-15T00:49:18;90793.66;;;1.34;57.06
10366;BME280;5229;41.820;23.490;2023-02-15T00:51:47;90791.88;;;1.35;57.26
10366;BME280;5229;41.820;23.490;2023-02-15T00:54:13;90800.13;;;1.37;57.07
10366;BME280;5229;41.820;23.490;2023-02-15T00:56:40;90797.09;;;1.40;56.98
10366;BME280;5229;41.820;23.490;2023-02-15T00:59:08;90794.53;;;1.40;56.98
10366;BME280;5229;41.820;23.490;2023-02-15T01:01:35;90795.88;;;1.42;56.86
10366;BME280;5229;41.820;23.490;2023-02-15T01:04:02;90784.41;;;1.45;56.97
10366;BME280;5229;41.820;23.490;2023-02-15T01:06:28;90772.16;;;1.47;56.94
10366;BME280;5229;41.820;23.490;2023-02-15T01:08:57;90771.47;;;1.51;56.71
10366;BME280;5229;41.820;23.490;2023-02-15T01:11:24;90773.03;;;1.52;56.53
10366;BME280;5229;41.820;23.490;2023-02-15T01:13:52;90768.69;;;1.53;56.43
10366;BME280;5229;41.820;23.490;2023-02-15T01:16:20;90767.69;;;1.54;56.70
10366;BME280;5229;41.820;23.490;2023-02-15T01:18:47;90771.81;;;1.55;56.50
10366;BME280;5229;41.820;23.490;2023-02-15T01:21:15;90759.25;;;1.53;56.47
10366;BME280;5229;41.820;23.490;2023-02-15T01:23:43;90762.28;;;1.50;56.63
10366;BME280;5229;41.820;23.490;2023-02-15T01:26:11;90753.28;;;1.48;56.05
10366;BME280;5229;41.820;23.490;2023-02-15T01:28:38;90758.06;;;1.44;56.45
10366;BME280;5229;41.820;23.490;2023-02-15T01:31:05;90755.22;;;1.41;56.08
10366;BME280;5229;41.820;23.490;2023-02-15T01:33:33;90760.72;;;1.33;56.16
10366;BME280;5229;41.820;23.490;2023-02-15T01:36:00;90758.06;;;1.28;56.35
10366;BME280;5229;41.820;23.490;2023-02-15T01:38:27;90761.06;;;1.25;56.59
10366;BME280;5229;41.820;23.490;2023-02-15T01:40:54;90766.41;;;1.23;56.05
10366;BME280;5229;41.820;23.490;2023-02-15T01:43:45;90764.06;;;1.22;56.18
10366;BME280;5229;41.820;23.490;2023-02-15T01:46:14;90758.66;;;1.18;56.19
10366;BME280;5229;41.820;23.490;2023-02-15T01:48:44;90755.25;;;1.13;56.35
10366;BME280;5229;41.820;23.490;2023-02-15T01:51:14;90749.50;;;1.06;56.11
10366;BME280;5229;41.820;23.490;2023-02-15T01:53:49;90745.31;;;1.00;56.48
10366;BME280;5229;41.820;23.490;2023-02-15T01:56:19;90742.44;;;0.96;56.54
10366;BME280;5229;41.820;23.490;2023-02-15T01:58:49;90743.22;;;0.97;56.44
10366;BME280;5229;41.820;23.490;2023-02-15T02:01:16;90750.78;;;0.92;56.38
10366;BME280;5229;41.820;23.490;2023-02-15T02:03:50;90753.78;;;0.89;56.45
10366;BME280;5229;41.820;23.490;2023-02-15T02:06:22;90747.59;;;0.85;56.67
10366;BME280;5229;41.820;23.490;2023-02-15T02:08:50;90751.03;;;0.79;56.26
10366;BME280;5229;41.820;23.490;2023-02-15T02:11:18;90764.47;;;0.74;56.60
10366;BME280;5229;41.820;23.490;2023-02-15T02:13:45;90772.59;;;0.71;56.35
10366;BME280;5229;41.820;23.490;2023-02-15T02:16:17;90775.84;;;0.67;56.55
10366;BME280;5229;41.820;23.490;2023-02-15T02:18:54;90775.19;;;0.60;56.60
10366;BME280;5229;41.820;23.490;2023-02-15T02:21:45;90775.06;;;0.55;56.59
10366;BME280;5229;41.820;23.490;2023-02-15T02:27:34;90781.63;;;0.51;56.95
10366;BME280;5229;41.820;23.490;2023-02-15T02:30:32;90781.09;;;0.49;56.70
10366;BME280;5229;41.820;23.490;2023-02-15T02:33:32;90785.31;;;0.43;56.68
10366;BME280;5229;41.820;23.490;2023-02-15T02:36:11;90789.63;;;0.43;56.87
10366;BME280;5229;41.820;23.490;2023-02-15T02:38:52;90783.66;;;0.37;56.71
10366;BME280;5229;41.820;23.490;2023-02-15T02:41:26;90792.09;;;0.38;56.89
10366;BME280;5229;41.820;23.490;2023-02-15T02:44:10;90800.50;;;0.38;57.06
10366;BME280;5229;41.820;23.490;2023-02-15T02:46:46;90803.25;;;0.37;57.19
10366;BME280;5229;41.820;23.490;2023-02-15T02:49:15;90806.25;;;0.34;57.06
10366;BME280;5229;41.820;23.490;2023-02-15T02:51:42;90805.28;;;0.35;57.36
10366;BME280;5229;41.820;23.490;2023-02-15T02:54:09;90808.03;;;0.33;57.37
10366;BME280;5229;41.820;23.490;2023-02-15T02:56:37;90811.59;;;0.32;58.21
10366;BME280;5229;41.820;23.490;2023-02-15T02:59:09;90816.00;;;0.37;57.93
10366;BME280;5229;41.820;23.490;2023-02-15T03:01:40;90812.34;;;0.44;57.95
10366;BME280;5229;41.820;23.490;2023-02-15T03:04:10;90804.78;;;0.49;57.86
10366;BME280;5229;41.820;23.490;2023-02-15T03:06:43;90816.56;;;0.50;58.04
10366;BME280;5229;41.820;23.490;2023-02-15T03:09:18;90818.91;;;0.52;57.79
10366;BME280;5229;41.820;23.490;2023-02-15T03:11:49;90808.47;;;0.53;57.83
10366;BME280;5229;41.820;23.490;2023-02-15T03:14:18;90807.03;;;0.57;57.84
10366;BME280;5229;41.820;23.490;2023-02-15T03:16:47;90797.13;;;0.61;57.92
10366;BME280;5229;41.820;23.490;2023-02-15T03:19:19;90806.31;;;0.62;57.95
10366;BME280;5229;41.820;23.490;2023-02-15T03:21:51;90810.09;;;0.59;57.65
10366;BME280;5229;41.820;23.490;2023-02-15T03:24:31;90818.44;;;0.55;57.64
10366;BME280;5229;41.820;23.490;2023-02-15T03:26:59;90817.56;;;0.49;57.49
10366;BME280;5229;41.820;23.490;2023-02-15T03:29:30;90828.88;;;0.42;57.73
10366;BME280;5229;41.820;23.490;2023-02-15T03:32:00;90828.22;;;0.35;58.03
10366;BME280;5229;41.820;23.490;2023-02-15T03:34:29;90822.03;;;0.31;57.87
10366;BME280;5229;41.820;23.490;2023-02-15T03:37:00;90826.56;;;0.29;57.92
10366;BME280;5229;41.820;23.490;2023-02-15T03:39:32;90828.31;;;0.28;58.18
10366;BME280;5229;41.820;23.490;2023-02-15T03:42:06;90819.91;;;0.28;57.83
10366;BME280;5229;41.820;23.490;2023-02-15T03:44:41;90818.13;;;0.28;58.42
10366;BME280;5229;41.820;23.490;2023-02-15T03:47:13;90826.34;;;0.30;58.51
10366;BME280;5229;41.820;23.490;2023-02-15T03:49:43;90828.00;;;0.36;58.39
10366;BME280;5229;41.820;23.490;2023-02-15T03:52:14;90829.88;;;0.41;58.60
10366;BME280;5229;41.820;23.490;2023-02-15T03:54:43;90836.09;;;0.45;58.33
10366;BME280;5229;41.820;23.490;2023-02-15T03:57:14;90842.16;;;0.44;58.42
10366;BME280;5229;41.820;23.490;2023-02-15T03:59:59;90849.28;;;0.42;58.48
10366;BME280;5229;41.820;23.490;2023-02-15T04:05:31;90854.25;;;0.37;58.23
10366;BME280;5229;41.820;23.490;2023-02-15T04:08:00;90858.38;;;0.38;58.44
10366;BME280;5229;41.820;23.490;2023-02-15T04:10:26;90857.81;;;0.36;58.30
10366;BME280;5229;41.820;23.490;2023-02-15T04:13:11;90854.94;;;0.32;58.38
10366;BME280;5229;41.820;23.490;2023-02-15T04:15:38;90853.81;;;0.28;58.97
10366;BME280;5229;41.820;23.490;2023-02-15T04:18:23;90858.59;;;0.25;58.24
10366;BME280;5229;41.820;23.490;2023-02-15T04:21:07;90854.94;;;0.21;58.72
10366;BME280;5229;41.820;23.490;2023-02-15T04:23:53;90850.59;;;0.21;58.79
10366;BME280;5229;41.820;23.490;2023-02-15T04:26:37;90855.59;;;0.16;58.56
10366;BME280;5229;41.820;23.490;2023-02-15T04:29:04;90853.25;;;0.15;58.74
10366;BME280;5229;41.820;23.490;2023-02-15T04:31:30;90852.16;;;0.11;58.80
10366;BME280;5229;41.820;23.490;2023-02-15T04:33:57;90840.84;;;0.07;58.79
10366;BME280;5229;41.820;23.490;2023-02-15T04:36:24;90849.94;;;0.03;58.84
10366;BME280;5229;41.820;23.490;2023-02-15T04:38:50;90860.56;;;-0.01;58.88
10366;BME280;5229;41.820;23.490;2023-02-15T04:41:19;90859.78;;;-0.01;58.79
10366;BME280;5229;41.820;23.490;2023-02-15T04:43:45;90861.34;;;0.00;58.99
10366;BME280;5229;41.820;23.490;2023-02-15T04:46:12;90858.03;;;-0.01;58.70
10366;BME280;5229;41.820;23.490;2023-02-15T04:48:39;90861.88;;;-0.10;58.66
10366;BME280;5229;41.820;23.490;2023-02-15T04:51:06;90864.09;;;-0.13;59.03
10366;BME280;5229;41.820;23.490;2023-02-15T04:53:33;90860.97;;;-0.15;58.91
10366;BME280;5229;41.820;23.490;2023-02-15T04:56:00;90866.28;;;-0.17;58.70
10366;BME280;5229;41.820;23.490;2023-02-15T04:58:28;90882.38;;;-0.16;58.85
10366;BME280;5229;41.820;23.490;2023-02-15T05:00:55;90877.28;;;-0.16;58.78
10366;BME280;5229;41.820;23.490;2023-02-15T05:03:22;90880.03;;;-0.18;58.71
10366;BME280;5229;41.820;23.490;2023-02-15T05:05:49;90882.47;;;-0.23;59.00
10366;BME280;5229;41.820;23.490;2023-02-15T05:08:16;90881.22;;;-0.32;58.73
10366;BME280;5229;41.820;23.490;2023-02-15T05:10:43;90887.16;;;-0.38;59.01
10366;BME280;5229;41.820;23.490;2023-02-15T05:13:10;90894.28;;;-0.40;58.93
10366;BME280;5229;41.820;23.490;2023-02-15T05:15:38;90898.16;;;-0.37;58.82
10366;BME280;5229;41.820;23.490;2023-02-15T05:18:05;90899.91;;;-0.38;58.77
10366;BME280;5229;41.820;23.490;2023-02-15T05:20:32;90910.88;;;-0.37;58.92
10366;BME280;5229;41.820;23.490;2023-02-15T05:23:00;90920.63;;;-0.34;58.95
10366;BME280;5229;41.820;23.490;2023-02-15T05:25:26;90928.63;;;-0.31;58.73
10366;BME280;5229;41.820;23.490;2023-02-15T05:28:11;90929.19;;;-0.29;59.04
10366;BME280;5229;41.820;23.490;2023-02-15T05:30:48;90920.97;;;-0.31;59.02
10366;BME280;5229;41.820;23.490;2023-02-15T05:33:16;90915.88;;;-0.31;59.32
10366;BME280;5229;41.820;23.490;2023-02-15T05:35:43;90924.09;;;-0.29;58.59
10366;BME280;5229;41.820;23.490;2023-02-15T05:38:10;90928.63;;;-0.31;58.70
10366;BME280;5229;41.820;23.490;2023-02-15T05:40:37;90926.06;;;-0.31;59.15
10366;BME280;5229;41.820;23.490;2023-02-15T05:43:04;90921.75;;;-0.30;58.95
10366;BME280;5229;41.820;23.490;2023-02-15T05:45:30;90916.66;;;-0.30;59.29
10366;BME280;5229;41.820;23.490;2023-02-15T05:47:58;90926.97;;;-0.25;58.97
10366;BME280;5229;41.820;23.490;2023-02-15T05:50:25;90930.66;;;-0.21;59.03
10366;BME280;5229;41.820;23.490;2023-02-15T05:52:52;90937.78;;;-0.12;59.15
10366;BME280;5229;41.820;23.490;2023-02-15T05:55:19;90936.66;;;-0.04;58.84
10366;BME280;5229;41.820;23.490;2023-02-15T05:57:46;90937.03;;;-0.01;58.98
10366;BME280;5229;41.820;23.490;2023-02-15T06:00:13;90941.25;;;0.06;58.91
10366;BME280;5229;41.820;23.490;2023-02-15T06:02:40;90935.25;;;0.12;59.00
10366;BME280;5229;41.820;23.490;2023-02-15T06:05:09;90937.97;;;0.17;58.88
10366;BME280;5229;41.820;23.490;2023-02-15T06:07:35;90949.25;;;0.21;59.04
10366;BME280;5229;41.820;23.490;2023-02-15T06:10:03;90949.38;;;0.26;59.34
10366;BME280;5229;41.820;23.490;2023-02-15T06:12:30;90945.31;;;0.36;58.78
10366;BME280;5229;41.820;23.490;2023-02-15T06:14:57;90943.88;;;0.52;58.54
10366;BME280;5229;41.820;23.490;2023-02-15T06:17:23;90948.09;;;0.81;58.79
10366;BME280;5229;41.820;23.490;2023-02-15T06:19:50;90944.59;;;1.33;58.07
10366;BME280;5229;41.820;23.490;2023-02-15T06:22:18;90948.63;;;2.13;57.43
10366;BME280;5229;41.820;23.490;2023-02-15T06:24:46;90955.88;;;2.98;55.77
10366;BME280;5229;41.820;23.490;2023-02-15T06:27:13;90947.72;;;3.83;54.48
10366;BME280;5229;41.820;23.490;2023-02-15T06:29:39;90945.56;;;4.81;52.83
10366;BME280;5229;41.820;23.490;2023-02-15T06:32:06;90943.88;;;5.84;51.23
10366;BME280;5229;41.820;23.490;2023-02-15T06:34:33;90941.22;;;6.56;49.57
10366;BME280;5229;41.820;23.490;2023-02-15T06:37:00;90945.63;;;7.01;49.37
10366;BME280;5229;41.820;23.490;2023-02-15T06:39:28;90935.53;;;7.39;48.06
10366;BME280;5229;41.820;23.490;2023-02-15T06:41:55;90936.09;;;8.00;47.63
10366;BME280;5229;41.820;23.490;2023-02-15T06:44:21;90927.94;;;8.75;45.88
10366;BME280;5229;41.820;23.490;2023-02-15T06:46:48;90929.78;;;9.65;44.76
10366;BME280;5229;41.820;23.490;2023-02-15T06:49:15;90934.88;;;10.59;43.37
10366;BME280;5229;41.820;23.490;2023-02-15T06:51:42;90939.84;;;11.75;41.36
10366;BME280;5229;41.820;23.490;2023-02-15T06:54:08;90943.41;;;13.10;39.12
10366;BME280;5229;41.820;23.490;2023-02-15T06:56:37;90939.38;;;14.31;37.24
10366;BME280;5229;41.820;23.490;2023-02-15T06:59:04;90945.19;;;15.27;35.85
10366;BME280;5229;41.820;23.490;2023-02-15T07:01:30;90945.88;;;16.12;35.10
10366;BME280;5229;41.820;23.490;2023-02-15T07:03:57;90950.81;;;16.80;33.33
10366;BME280;5229;41.820;23.490;2023-02-15T07:06:24;90950.19;;;17.54;32.63
10366;BME280;5229;41.820;23.490;2023-02-15T07:08:51;90955.66;;;18.26;31.25
10366;BME280;5229;41.820;23.490;2023-02-15T07:11:18;90961.22;;;18.93;30.39
10366;BME280;5229;41.820;23.490;2023-02-15T07:14:04;90961.59;;;19.55;29.54
10366;BME280;5229;41.820;23.490;2023-02-15T07:16:30;90971.56;;;19.89;28.51
10366;BME280;5229;41.820;23.490;2023-02-15T07:18:57;90963.69;;;20.32;28.08
10366;BME280;5229;41.820;23.490;2023-02-15T07:21:24;90972.31;;;20.45;27.69
10366;BME280;5229;41.820;23.490;2023-02-15T07:23:51;90969.56;;;20.26;27.74
10366;BME280;5229;41.820;23.490;2023-02-15T07:26:18;90964.94;;;20.23;27.64
10366;BME280;5229;41.820;23.490;2023-02-15T07:28:45;90969.56;;;20.26;27.41
10366;BME280;5229;41.820;23.490;2023-02-15T07:31:13;90972.34;;;20.17;27.38
10366;BME280;5229;41.820;23.490;2023-02-15T07:33:40;90970.50;;;19.78;27.70
10366;BME280;5229;41.820;23.490;2023-02-15T07:36:08;90964.44;;;19.50;27.75
10366;BME280;5229;41.820;23.490;2023-02-15T07:38:38;90968.72;;;19.54;27.49
10366;BME280;5229;41.820;23.490;2023-02-15T07:41:07;90968.47;;;19.59;27.45
10366;BME280;5229;41.820;23.490;2023-02-15T07:43:36;90971.50;;;19.73;26.98
10366;BME280;5229;41.820;23.490;2023-02-15T07:46:05;90978.13;;;19.95;27.00
10366;BME280;5229;41.820;23.490;2023-02-15T07:48:34;90980.09;;;19.98;26.46
10366;BME280;5229;41.820;23.490;2023-02-15T07:51:03;90978.19;;;19.83;26.56
10366;BME280;5229;41.820;23.490;2023-02-15T07:53:30;90978.88;;;19.28;26.90
10366;BME280;5229;41.820;23.490;2023-02-15T07:55:58;90974.56;;;18.64;27.53
10366;BME280;5229;41.820;23.490;2023-02-15T07:58:25;90971.44;;;17.93;28.44
10366;BME280;5229;41.820;23.490;2023-02-15T08:01:12;90981.25;;;17.22;28.65
10366;BME280;5229;41.820;23.490;2023-02-15T08:03:40;90980.84;;;16.83;29.25
10366;BME280;5229;41.820;23.490;2023-02-15T08:06:08;90970.28;;;16.42;29.25
10366;BME280;5229;41.820;23.490;2023-02-15T08:08:35;90967.84;;;16.20;29.64
10366;BME280;5229;41.820;23.490;2023-02-15T08:11:04;90974.75;;;16.24;29.33
10366;BME280;5229;41.820;23.490;2023-02-15T08:13:50;90975.78;;;16.49;29.42
10366;BME280;5229;41.820;23.490;2023-02-15T08:16:24;90976.78;;;16.94;28.66
10366;BME280;5229;41.820;23.490;2023-02-15T08:18:53;90973.75;;;17.12;28.21
10366;BME280;5229;41.820;23.490;2023-02-15T08:21:21;90972.75;;;17.25;28.43
10366;BME280;5229;41.820;23.490;2023-02-15T08:23:48;90971.59;;;17.35;28.15
10366;BME280;5229;41.820;23.490;2023-02-15T08:26:15;90961.88;;;17.35;28.42
10366;BME280;5229;41.820;23.490;2023-02-15T08:28:43;90963.97;;;17.21;28.77
10366;BME280;5229;41.820;23.490;2023-02-15T08:31:12;90973.91;;;17.16;28.11
10366;BME280;5229;41.820;23.490;2023-02-15T08:33:41;90972.50;;;16.89;28.74
10366;BME280;5229;41.820;23.490;2023-02-15T08:36:13;90981.28;;;16.64;29.30
10366;BME280;5229;41.820;23.490;2023-02-15T08:38:41;90968.69;;;16.49;28.79
10366;BME280;5229;41.820;23.490;2023-02-15T08:41:13;90972.41;;;16.40;29.22
10366;BME280;5229;41.820;23.490;2023-02-15T08:43:40;90976.38;;;16.83;29.35
10366;BME280;5229;41.820;23.490;2023-02-15T08:46:09;90971.59;;;17.14;28.71
10366;BME280;5229;41.820;23.490;2023-02-15T08:48:36;90969.66;;;17.23;27.96
10366;BME280;5229;41.820;23.490;2023-02-15T08:51:10;90973.75;;;17.12;28.38
10366;BME280;5229;41.820;23.490;2023-02-15T08:53:38;90970.69;;;17.10;28.19
10366;BME280;5229;41.820;23.490;2023-02-15T08:56:05;90971.97;;;17.04;28.52
10366;BME280;5229;41.820;23.490;2023-02-15T08:58:33;90974.16;;;16.94;28.47
10366;BME280;5229;41.820;23.490;2023-02-15T09:01:00;90971.72;;;17.18;28.36
10366;BME280;5229;41.820;23.490;2023-02-15T09:03:28;90965.81;;;17.83;27.77
10366;BME280;5229;41.820;23.490;2023-02-15T09:05:58;90970.13;;;18.32;27.21
10366;BME280;5229;41.820;23.490;2023-02-15T09:08:27;90970.13;;;18.32;27.39
10366;BME280;5229;41.820;23.490;2023-02-15T09:11:03;90967.63;;;18.35;27.26
10366;BME280;5229;41.820;23.490;2023-02-15T09:13:30;90967.47;;;19.00;26.98
10366;BME280;5229;41.820;23.490;2023-02-15T09:15:59;90966.78;;;20.06;26.01
10366;BME280;5229;41.820;23.490;2023-02-15T09:18:26;90967.31;;;21.17;24.89
10366;BME280;5229;41.820;23.490;2023-02-15T09:20:53;90974.81;;;22.03;23.79
10366;BME280;5229;41.820;23.490;2023-02-15T09:23:20;90969.66;;;22.71;23.17
10366;BME280;5229;41.820;23.490;2023-02-15T09:25:48;90976.47;;;23.43;22.45
10366;BME280;5229;41.820;23.490;2023-02-15T09:28:15;90967.22;;;23.86;22.23
10366;BME280;5229;41.820;23.490;2023-02-15T09:30:42;90968.03;;;24.19;21.92
10366;BME280;5229;41.820;23.490;2023-02-15T09:33:09;90969.91;;;24.52;21.35
10366;BME280;5229;41.820;23.490;2023-02-15T09:35:36;90982.09;;;24.96;21.07
10366;BME280;5229;41.820;23.490;2023-02-15T09:38:02;90976.13;;;25.50;20.83
10366;BME280;5229;41.820;23.490;2023-02-15T09:40:32;90979.88;;;26.03;19.90
10366;BME280;5229;41.820;23.490;2023-02-15T09:43:18;90976.59;;;26.34;19.89
10366;BME280;5229;41.820;23.490;2023-02-15T09:46:19;90972.78;;;26.35;19.28
10366;BME280;5229;41.820;23.490;2023-02-15T09:48:55;90973.94;;;26.41;19.33
10366;BME280;5229;41.820;23.490;2023-02-15T09:51:43;90963.44;;;26.76;19.22
10366;BME280;5229;41.820;23.490;2023-02-15T09:54:24;90963.44;;;27.18;18.67
10366;BME280;5229;41.820;23.490;2023-02-15T09:56:57;90956.22;;;27.64;18.73
10366;BME280;5229;41.820;23.490;2023-02-15T09:59:32;90950.81;;;28.06;18.14
10366;BME280;5229;41.820;23.490;2023-02-15T10:02:10;90948.81;;;28.35;17.73
10366;BME280;5229;41.820;23.490;2023-02-15T10:04:54;90936.88;;;28.61;17.45
10366;BME280;5229;41.820;23.490;2023-02-15T10:07:50;90932.59;;;28.77;16.79
10366;BME280;5229;41.820;23.490;2023-02-15T10:10:28;90934.41;;;28.91;16.95
10366;BME280;5229;41.820;23.490;2023-02-15T10:13:12;90924.69;;;29.18;16.77
10366;BME280;5229;41.820;23.490;2023-02-15T10:15:54;90928.09;;;29.22;16.26
10366;BME280;5229;41.820;23.490;2023-02-15T10:18:38;90928.44;;;29.27;16.31
10366;BME280;5229;41.820;23.490;2023-02-15T10:21:20;90929.63;;;29.23;16.26
10366;BME280;5229;41.820;23.490;2023-02-15T10:24:04;90937.22;;;29.28;16.69
10366;BME280;5229;41.820;23.490;2023-02-15T10:26:40;90928.00;;;29.36;16.39
10366;BME280;5229;41.820;23.490;2023-02-15T10:29:15;90924.53;;;29.39;15.87
10366;BME280;5229;41.820;23.490;2023-02-15T10:31:48;90915.78;;;29.31;16.36
10366;BME280;5229;41.820;23.490;2023-02-15T10:34:17;90916.25;;;29.26;15.85
10366;BME280;5229;41.820;23.490;2023-02-15T10:37:00;90907.50;;;29.19;15.84
10366;BME280;5229;41.820;23.490;2023-02-15T10:39:41;90905.56;;;29.23;15.99
10366;BME280;5229;41.820;23.490;2023-02-15T10:42:17;90908.22;;;29.26;15.78
10366;BME280;5229;41.820;23.490;2023-02-15T10:45:03;90905.59;;;29.19;16.12
10366;BME280;5229;41.820;23.490;2023-02-15T10:47:48;90897.72;;;28.95;16.13
10366;BME280;5229;41.820;23.490;2023-02-15T10:50:32;90909.00;;;28.69;16.03
10366;BME280;5229;41.820;23.490;2023-02-15T10:53:17;90903.81;;;28.44;16.32
10366;BME280;5229;41.820;23.490;2023-02-15T10:55:55;90894.69;;;28.28;16.75
10366;BME280;5229;41.820;23.490;2023-02-15T10:58:35;90893.06;;;27.33;16.87
10366;BME280;5229;41.820;23.490;2023-02-15T11:01:13;90901.53;;;25.87;17.88
10366;BME280;5229;41.820;23.490;2023-02-15T11:04:09;90885.22;;;24.33;18.99
10366;BME280;5229;41.820;23.490;2023-02-15T11:06:44;90889.16;;;22.95;19.88
10366;BME280;5229;41.820;23.490;2023-02-15T11:09:14;90883.34;;;21.76;20.89
10366;BME280;5229;41.820;23.490;2023-02-15T11:11:45;90875.97;;;20.78;21.74
10366;BME280;5229;41.820;23.490;2023-02-15T11:14:15;90879.75;;;19.87;22.60
10366;BME280;5229;41.820;23.490;2023-02-15T11:16:48;90869.53;;;19.03;23.00
10366;BME280;5229;41.820;23.490;2023-02-15T11:19:20;90871.25;;;18.36;23.90
10366;BME280;5229;41.820;23.490;2023-02-15T11:21:50;90859.09;;;17.75;24.41
10366;BME280;5229;41.820;23.490;2023-02-15T11:24:20;90861.19;;;17.16;24.77
10366;BME280;5229;41.820;23.490;2023-02-15T11:26:51;90861.75;;;16.60;25.61
10366;BME280;5229;41.820;23.490;2023-02-15T11:29:25;90861.81;;;16.14;26.07
10366;BME280;5229;41.820;23.490;2023-02-15T11:31:55;90862.44;;;15.73;26.26
10366;BME280;5229;41.820;23.490;2023-02-15T11:34:28;90859.44;;;15.29;26.60
10366;BME280;5229;41.820;23.490;2023-02-15T11:37:01;90855.16;;;14.90;26.85
10366;BME280;5229;41.820;23.490;2023-02-15T11:39:30;90859.72;;;14.59;27.66
10366;BME280;5229;41.820;23.490;2023-02-15T11:42:01;90853.72;;;14.33;27.74
10366;BME280;5229;41.820;23.490;2023-02-15T11:44:33;90853.50;;;14.12;28.08
10366;BME280;5229;41.820;23.490;2023-02-15T11:47:02;90848.38;;;13.90;28.24
10366;BME280;5229;41.820;23.490;2023-02-15T11:49:32;90845.22;;;13.71;27.97
10366;BME280;5229;41.820;23.490;2023-02-15T11:52:02;90845.44;;;13.53;28.19
10366;BME280;5229;41.820;23.490;2023-02-15T11:54:32;90849.22;;;13.38;28.62
10366;BME280;5229;41.820;23.490;2023-02-15T11:57:04;90850.34;;;13.24;28.71
10366;BME280;5229;41.820;23.490;2023-02-15T11:59:40;90845.94;;;13.02;29.74
10366;BME280;5229;41.820;23.490;2023-02-15T12:02:16;90844.44;;;12.88;30.09
10366;BME280;5229;41.820;23.490;2023-02-15T12:04:48;90841.59;;;12.76;30.33
10366;BME280;5229;41.820;23.490;2023-02-15T12:07:20;90836.13;;;12.64;30.63
10366;BME280;5229;41.820;23.490;2023-02-15T12:09:55;90835.34;;;12.41;30.90
10366;BME280;5229;41.820;23.490;2023-02-15T12:12:27;90832.13;;;12.22;31.43
10366;BME280;5229;41.820;23.490;2023-02-15T12:14:55;90834.75;;;12.09;31.34
10366;BME280;5229;41.820;23.490;2023-02-15T12:17:24;90837.34;;;11.95;31.82
10366;BME280;5229;41.820;23.490;2023-02-15T12:19:55;90821.09;;;11.89;31.86
10366;BME280;5229;41.820;23.490;2023-02-15T12:22:24;90815.78;;;11.81;31.81
10366;BME280;5229;41.820;23.490;2023-02-15T12:24:54;90814.47;;;11.70;32.58
10366;BME280;5229;41.820;23.490;2023-02-15T12:27:24;90816.47;;;11.59;32.36
10366;BME280;5229;41.820;23.490;2023-02-15T12:29:56;90812.69;;;11.52;32.72
10366;BME280;5229;41.820;23.490;2023-02-15T12:32:25;90809.03;;;11.39;33.00
10366;BME280;5229;41.820;23.490;2023-02-15T12:34:59;90808.25;;;11.25;33.35
10366;BME280;5229;41.820;23.490;2023-02-15T12:37:30;90806.81;;;11.19;33.57
10366;BME280;5229;41.820;23.490;2023-02-15T12:40:01;90803.25;;;11.15;33.34
10366;BME280;5229;41.820;23.490;2023-02-15T12:42:41;90804.19;;;11.06;33.62
10366;BME280;5229;41.820;23.490;2023-02-15T12:45:25;90805.34;;;11.00;33.55
10366;BME280;5229;41.820;23.490;2023-02-15T12:48:15;90810.13;;;10.93;33.92
10366;BME280;5229;41.820;23.490;2023-02-15T12:50:49;90800.69;;;10.83;34.26
10366;BME280;5229;41.820;23.490;2023-02-15T12:53:19;90801.84;;;10.77;34.20
10366;BME280;5229;41.820;23.490;2023-02-15T12:55:50;90806.41;;;10.67;34.62
10366;BME280;5229;41.820;23.490;2023-02-15T12:58:19;90801.59;;;10.60;34.65
10366;BME280;5229;41.820;23.490;2023-02-15T13:00:47;90795.16;;;10.58;34.64
10366;BME280;5229;41.820;23.490;2023-02-15T13:03:17;90793.31;;;10.58;35.11
10366;BME280;5229;41.820;23.490;2023-02-15T13:05:48;90794.66;;;10.56;34.66
10366;BME280;5229;41.820;23.490;2023-02-15T13:08:19;90800.41;;;10.53;35.00
10366;BME280;5229;41.820;23.490;2023-02-15T13:10:54;90793.19;;;10.50;34.89
10366;BME280;5229;41.820;23.490;2023-02-15T13:13:24;90791.16;;;10.47;34.93
10366;BME280;5229;41.820;23.490;2023-02-15T13:15:54;90797.69;;;10.44;35.23
10366;BME280;5229;41.820;23.490;2023-02-15T13:18:30;90796.72;;;10.40;35.79
10366;BME280;5229;41.820;23.490;2023-02-15T13:21:04;90799.31;;;10.40;35.01
10366;BME280;5229;41.820;23.490;2023-02-15T13:23:31;90800.16;;;10.36;35.07
10366;BME280;5229;41.820;23.490;2023-02-15T13:25:59;90799.41;;;10.35;35.74
10366;BME280;5229;41.820;23.490;2023-02-15T13:28:34;90804.63;;;10.30;35.58
10366;BME280;5229;41.820;23.490;2023-02-15T13:31:12;90797.41;;;10.27;35.92